createdAt,value
2018-03-04T00:00:57.659Z,91.30
2018-03-04T00:01:57.633Z,89.40
2018-03-04T00:02:57.641Z,88.20
2018-03-04T00:03:57.683Z,89.10
2018-03-04T00:04:57.760Z,92.80
2018-03-04T00:05:58.054Z,83.80
2018-03-04T00:06:57.678Z,93.10
2018-03-04T00:07:57.680Z,91.60
2018-03-04T00:08:57.689Z,88.80
2018-03-04T00:09:57.698Z,86.50
2018-03-04T00:10:57.706Z,86.50
2018-03-04T00:11:57.715Z,92.30
2018-03-04T00:12:57.722Z,86.60
2018-03-04T00:13:57.730Z,88.80
2018-03-04T00:14:57.735Z,88.10
2018-03-04T00:15:57.745Z,92.80
2018-03-04T00:16:57.752Z,84.90
2018-03-04T00:17:57.759Z,87.40
2018-03-04T00:18:57.769Z,90.70
2018-03-04T00:19:57.775Z,88.20
2018-03-04T00:20:57.784Z,86.30
2018-03-04T00:21:57.793Z,87.60
2018-03-04T00:22:57.804Z,87.70
2018-03-04T00:23:57.810Z,94.10
2018-03-04T00:24:57.817Z,93.70
2018-03-04T00:25:57.825Z,91.10
2018-03-04T00:26:57.839Z,90.30
2018-03-04T00:27:57.850Z,90.50
2018-03-04T00:28:57.950Z,90.90
2018-03-04T00:29:57.863Z,86.90
2018-03-04T00:30:57.865Z,92.40
2018-03-04T00:31:57.884Z,91.70
2018-03-04T00:32:57.880Z,92.00
2018-03-04T00:33:57.887Z,91.70
2018-03-04T00:35:58.157Z,93.60
2018-03-04T00:36:57.911Z,86.40
2018-03-04T00:37:57.921Z,92.70
2018-03-04T00:38:57.930Z,90.80
2018-03-04T00:39:57.934Z,97.50
2018-03-04T00:40:57.943Z,91.00
2018-03-04T00:41:57.962Z,90.20
2018-03-04T00:42:57.958Z,93.70
2018-03-04T00:43:57.971Z,91.30
2018-03-04T00:44:57.975Z,89.10
2018-03-04T00:45:57.983Z,91.40
2018-03-04T00:46:57.990Z,88.80
2018-03-04T00:47:58.021Z,95.00
2018-03-04T00:48:58.009Z,93.20
2018-03-04T00:49:58.021Z,90.50
2018-03-04T00:50:58.029Z,90.30
2018-03-04T00:51:58.032Z,92.70
2018-03-04T00:52:58.041Z,88.80
2018-03-04T00:53:58.047Z,95.90
2018-03-04T00:54:58.053Z,95.20
2018-03-04T00:55:58.114Z,95.20
2018-03-04T00:56:58.217Z,93.70
2018-03-04T00:57:58.128Z,94.10
2018-03-04T00:58:58.087Z,91.20
2018-03-04T00:59:58.096Z,93.90
2018-03-04T01:00:58.100Z,92.10
2018-03-04T01:01:58.110Z,91.70
2018-03-04T01:02:58.117Z,93.90
2018-03-04T01:03:58.275Z,93.40
2018-03-04T01:05:58.163Z,95.70
2018-03-04T01:06:58.148Z,89.00
2018-03-04T01:07:58.154Z,89.70
2018-03-04T01:08:58.163Z,90.70
2018-03-04T01:09:58.171Z,92.90
2018-03-04T01:10:58.178Z,92.90
2018-03-04T01:11:58.186Z,92.80
2018-03-04T01:12:58.195Z,95.60
2018-03-04T01:13:58.202Z,92.90
2018-03-04T01:14:58.212Z,92.10
2018-03-04T01:15:58.217Z,92.50
2018-03-04T01:16:58.226Z,86.90
2018-03-04T01:17:58.238Z,94.30
2018-03-04T01:18:58.240Z,93.00
2018-03-04T01:19:58.249Z,94.20
2018-03-04T01:20:58.257Z,95.80
2018-03-04T01:21:58.264Z,94.60
2018-03-04T01:22:58.273Z,92.10
2018-03-04T01:23:58.283Z,94.50
2018-03-04T01:24:58.288Z,96.00
2018-03-04T01:25:58.358Z,89.10
2018-03-04T01:26:58.302Z,93.00
2018-03-04T01:27:58.359Z,92.90
2018-03-04T01:28:58.323Z,95.70
2018-03-04T01:29:58.320Z,91.80
2018-03-04T01:30:58.328Z,94.80
2018-03-04T01:31:58.337Z,92.50
2018-03-04T01:32:58.349Z,97.70
2018-03-04T01:33:58.403Z,96.70
2018-03-04T01:34:58.388Z,97.40
2018-03-04T01:35:58.398Z,92.40
2018-03-04T01:36:58.376Z,97.90
2018-03-04T01:37:58.383Z,95.90
2018-03-04T01:38:58.389Z,91.90
2018-03-04T01:39:58.398Z,97.10
2018-03-04T01:40:58.407Z,92.60
2018-03-04T01:41:58.415Z,92.30
2018-03-04T01:42:58.423Z,92.80
2018-03-04T01:43:58.432Z,92.80
2018-03-04T01:44:58.439Z,94.10
2018-03-04T01:45:58.554Z,96.50
2018-03-04T01:46:58.454Z,98.90
2018-03-04T01:47:58.490Z,94.30
2018-03-04T01:48:58.470Z,91.20
2018-03-04T01:49:58.479Z,97.70
2018-03-04T01:50:58.484Z,96.80
2018-03-04T01:51:58.496Z,92.90
2018-03-04T01:52:58.500Z,95.20
2018-03-04T01:53:58.513Z,95.90
2018-03-04T01:54:58.522Z,92.00
2018-03-04T01:55:58.528Z,96.00
2018-03-04T01:56:58.533Z,97.90
2018-03-04T01:57:58.541Z,95.20
2018-03-04T01:58:58.553Z,100.80
2018-03-04T01:59:58.558Z,96.00
2018-03-04T02:00:58.564Z,93.50
2018-03-04T02:01:58.576Z,99.10
2018-03-04T02:02:58.584Z,95.50
2018-03-04T02:03:58.588Z,96.10
2018-03-04T02:04:58.596Z,96.30
2018-03-04T02:05:58.605Z,98.60
2018-03-04T02:06:58.612Z,96.60
2018-03-04T02:08:58.659Z,99.20
2018-03-04T02:09:58.637Z,97.50
2018-03-04T02:10:58.644Z,94.80
2018-03-04T02:11:58.752Z,93.70
2018-03-04T02:12:58.659Z,92.80
2018-03-04T02:13:58.670Z,91.50
2018-03-04T02:14:58.674Z,95.80
2018-03-04T02:15:58.686Z,97.90
2018-03-04T02:16:58.697Z,98.70
2018-03-04T02:17:58.699Z,99.70
2018-03-04T02:18:58.706Z,95.90
2018-03-04T02:19:58.716Z,100.50
2018-03-04T02:20:58.723Z,89.60
2018-03-04T02:21:58.730Z,99.20
2018-03-04T02:22:58.738Z,98.60
2018-03-04T02:23:58.746Z,96.40
2018-03-04T02:24:58.754Z,98.70
2018-03-04T02:25:58.765Z,98.90
2018-03-04T02:26:58.770Z,97.60
2018-03-04T02:27:58.785Z,97.20
2018-03-04T02:28:58.788Z,100.80
2018-03-04T02:29:58.818Z,96.30
2018-03-04T02:30:58.805Z,97.00
2018-03-04T02:31:58.815Z,95.50
2018-03-04T02:32:58.831Z,94.90
2018-03-04T02:33:58.827Z,101.00
2018-03-04T02:34:58.834Z,98.30
2018-03-04T02:35:58.843Z,99.90
2018-03-04T02:36:58.852Z,97.00
2018-03-04T02:37:58.870Z,96.80
2018-03-04T02:38:58.978Z,98.40
2018-03-04T02:40:59.142Z,100.00
2018-03-04T02:41:58.890Z,97.50
2018-03-04T02:42:58.898Z,97.50
2018-03-04T02:43:58.912Z,99.60
2018-03-04T02:44:58.915Z,97.20
2018-03-04T02:45:58.923Z,100.20
2018-03-04T02:46:58.934Z,97.00
2018-03-04T02:47:58.944Z,99.80
2018-03-04T02:48:58.947Z,100.60
2018-03-04T02:49:58.966Z,98.40
2018-03-04T02:50:58.969Z,102.20
2018-03-04T02:51:58.972Z,94.00
2018-03-04T02:52:58.979Z,103.00
2018-03-04T02:53:58.986Z,101.10
2018-03-04T02:54:58.995Z,98.60
2018-03-04T02:55:59.005Z,98.30
2018-03-04T02:56:59.012Z,103.00
2018-03-04T02:57:59.019Z,104.30
2018-03-04T02:58:59.026Z,99.70
2018-03-04T02:59:59.036Z,99.30
2018-03-04T03:00:59.043Z,101.50
2018-03-04T03:01:59.062Z,99.30
2018-03-04T03:02:59.073Z,97.80
2018-03-04T03:03:59.068Z,97.80
2018-03-04T03:04:59.116Z,97.80
2018-03-04T03:05:59.083Z,98.40
2018-03-04T03:06:59.094Z,106.50
2018-03-04T03:07:59.104Z,104.60
2018-03-04T03:08:59.108Z,101.90
2018-03-04T03:09:59.168Z,104.20
2018-03-04T03:10:59.364Z,96.00
2018-03-04T03:11:59.158Z,95.60
2018-03-04T03:12:59.140Z,97.60
2018-03-04T03:13:59.151Z,98.10
2018-03-04T03:14:59.160Z,99.50
2018-03-04T03:15:59.163Z,93.70
2018-03-04T03:16:59.175Z,98.20
2018-03-04T03:17:59.181Z,100.00
2018-03-04T03:18:59.190Z,102.70
2018-03-04T03:19:59.197Z,101.80
2018-03-04T03:20:59.207Z,96.90
2018-03-04T03:21:59.215Z,95.30
2018-03-04T03:22:59.221Z,99.80
2018-03-04T03:23:59.233Z,97.60
2018-03-04T03:24:59.241Z,100.50
2018-03-04T03:25:59.246Z,97.90
2018-03-04T03:26:59.254Z,97.90
2018-03-04T03:27:59.263Z,105.00
2018-03-04T03:28:59.276Z,102.30
2018-03-04T03:29:59.281Z,98.60
2018-03-04T03:30:59.313Z,97.50
2018-03-04T03:31:59.296Z,93.00
2018-03-04T03:32:59.310Z,101.80
2018-03-04T03:33:59.313Z,100.20
2018-03-04T03:34:59.321Z,98.00
2018-03-04T03:35:59.330Z,96.40
2018-03-04T03:36:59.337Z,93.80
2018-03-04T03:37:59.349Z,100.30
2018-03-04T03:38:59.354Z,98.40
2018-03-04T03:39:59.363Z,100.00
2018-03-04T03:42:59.820Z,103.90
2018-03-04T03:43:59.395Z,94.80
2018-03-04T03:44:59.407Z,100.10
2018-03-04T03:45:59.417Z,102.50
2018-03-04T03:46:59.422Z,98.70
2018-03-04T03:47:59.429Z,96.00
2018-03-04T03:48:59.437Z,97.00
2018-03-04T03:49:59.449Z,99.70
2018-03-04T03:50:59.457Z,97.30
2018-03-04T03:51:59.592Z,93.70
2018-03-04T03:52:59.470Z,93.30
2018-03-04T03:53:59.481Z,96.20
2018-03-04T03:54:59.489Z,101.40
2018-03-04T03:55:59.496Z,95.80
2018-03-04T03:56:59.506Z,97.00
2018-03-04T03:57:59.513Z,102.10
2018-03-04T03:58:59.521Z,99.10
2018-03-04T03:59:59.529Z,96.00
2018-03-04T04:00:59.542Z,99.40
2018-03-04T04:01:59.551Z,93.10
2018-03-04T04:02:59.558Z,98.50
2018-03-04T04:03:59.563Z,99.90
2018-03-04T04:04:59.570Z,104.80
2018-03-04T04:05:59.585Z,96.50
2018-03-04T04:06:59.588Z,99.40
2018-03-04T04:07:59.597Z,96.30
2018-03-04T04:08:59.605Z,99.10
2018-03-04T04:09:59.614Z,100.70
2018-03-04T04:10:59.621Z,105.80
2018-03-04T04:11:59.631Z,100.80
2018-03-04T04:12:59.640Z,101.90
2018-03-04T04:13:59.762Z,100.90
2018-03-04T04:15:59.831Z,96.70
2018-03-04T04:16:59.671Z,98.00
2018-03-04T04:17:59.680Z,100.20
2018-03-04T04:18:59.687Z,98.40
2018-03-04T04:19:59.696Z,103.30
2018-03-04T04:20:59.705Z,103.00
2018-03-04T04:21:59.714Z,104.00
2018-03-04T04:22:59.721Z,100.70
2018-03-04T04:23:59.736Z,104.10
2018-03-04T04:24:59.738Z,97.70
2018-03-04T04:25:59.751Z,103.30
2018-03-04T04:26:59.766Z,105.70
2018-03-04T04:27:59.766Z,99.50
2018-03-04T04:28:59.773Z,101.60
2018-03-04T04:29:59.783Z,94.50
2018-03-04T04:30:59.788Z,105.10
2018-03-04T04:31:59.796Z,102.10
2018-03-04T04:32:59.806Z,101.30
2018-03-04T04:33:59.815Z,103.30
2018-03-04T04:34:59.839Z,101.80
2018-03-04T04:35:59.834Z,104.30
2018-03-04T04:36:59.840Z,99.90
2018-03-04T04:37:59.850Z,103.60
2018-03-04T04:38:59.862Z,102.30
2018-03-04T04:39:59.866Z,103.90
2018-03-04T04:40:59.875Z,103.10
2018-03-04T04:41:59.884Z,102.80
2018-03-04T04:42:59.892Z,102.70
2018-03-04T04:43:59.901Z,101.30
2018-03-04T04:46:00.194Z,103.00
2018-03-04T04:46:59.936Z,102.20
2018-03-04T04:47:59.940Z,100.20
2018-03-04T04:48:59.942Z,104.30
2018-03-04T04:49:59.952Z,98.80
2018-03-04T04:50:59.960Z,107.30
2018-03-04T04:51:59.968Z,102.90
2018-03-04T04:52:59.976Z,105.00
2018-03-04T04:53:59.991Z,101.10
2018-03-04T04:54:59.995Z,104.20
2018-03-04T04:56:00.006Z,102.80
2018-03-04T04:57:00.013Z,105.00
2018-03-04T04:58:00.024Z,100.20
2018-03-04T04:59:00.028Z,98.50
2018-03-04T05:00:00.036Z,104.70
2018-03-04T05:01:00.043Z,104.70
2018-03-04T05:02:00.052Z,106.80
2018-03-04T05:03:00.068Z,104.10
2018-03-04T05:04:00.070Z,102.20
2018-03-04T05:05:00.078Z,105.60
2018-03-04T05:06:00.086Z,101.00
2018-03-04T05:07:00.101Z,102.70
2018-03-04T05:08:00.103Z,104.20
2018-03-04T05:09:00.119Z,104.70
2018-03-04T05:10:00.121Z,104.90
2018-03-04T05:11:00.128Z,106.20
2018-03-04T05:12:00.135Z,100.80
2018-03-04T05:13:00.146Z,105.60
2018-03-04T05:14:00.156Z,106.40
2018-03-04T05:17:00.198Z,107.50
2018-03-04T05:18:00.192Z,104.20
2018-03-04T05:19:00.194Z,106.10
2018-03-04T05:20:00.203Z,104.00
2018-03-04T05:21:00.216Z,98.50
2018-03-04T05:22:00.225Z,107.00
2018-03-04T05:23:00.232Z,99.30
2018-03-04T05:24:00.242Z,101.30
2018-03-04T05:25:00.247Z,100.10
2018-03-04T05:26:00.256Z,100.50
2018-03-04T05:27:00.268Z,103.60
2018-03-04T05:28:00.277Z,106.50
2018-03-04T05:29:00.280Z,106.90
2018-03-04T05:30:00.290Z,105.40
2018-03-04T05:31:00.298Z,107.00
2018-03-04T05:32:00.307Z,101.60
2018-03-04T05:33:00.315Z,105.30
2018-03-04T05:34:00.323Z,103.70
2018-03-04T05:35:00.331Z,107.70
2018-03-04T05:36:00.340Z,110.40
2018-03-04T05:37:00.352Z,104.80
2018-03-04T05:38:00.358Z,108.70
2018-03-04T05:39:00.367Z,101.40
2018-03-04T05:40:00.373Z,104.80
2018-03-04T05:41:00.382Z,105.00
2018-03-04T05:42:00.397Z,103.90
2018-03-04T05:43:00.499Z,101.90
2018-03-04T05:44:00.407Z,102.90
2018-03-04T05:45:00.418Z,107.70
2018-03-04T05:46:00.422Z,105.80
2018-03-04T05:47:00.481Z,113.50
2018-03-04T05:48:00.671Z,107.10
2018-03-04T05:49:00.938Z,102.90
2018-03-04T05:50:00.457Z,108.20
2018-03-04T05:51:00.465Z,102.40
2018-03-04T05:52:00.476Z,104.30
2018-03-04T05:53:00.483Z,107.60
2018-03-04T05:54:00.492Z,103.40
2018-03-04T05:55:00.500Z,108.80
2018-03-04T05:56:00.513Z,100.70
2018-03-04T05:57:00.517Z,104.50
2018-03-04T05:58:00.526Z,105.90
2018-03-04T05:59:00.533Z,106.10
2018-03-04T06:00:00.542Z,103.60
2018-03-04T06:01:00.552Z,108.60
2018-03-04T06:02:00.568Z,101.60
2018-03-04T06:03:00.568Z,102.70
2018-03-04T06:04:00.576Z,103.70
2018-03-04T06:05:00.584Z,107.90
2018-03-04T06:06:00.598Z,106.00
2018-03-04T06:07:00.600Z,108.30
2018-03-04T06:08:00.619Z,103.90
2018-03-04T06:09:00.630Z,105.00
2018-03-04T06:10:00.624Z,100.90
2018-03-04T06:11:00.635Z,106.60
2018-03-04T06:12:00.643Z,108.50
2018-03-04T06:13:00.653Z,104.60
2018-03-04T06:14:00.662Z,108.90
2018-03-04T06:15:00.680Z,106.30
2018-03-04T06:16:00.677Z,101.20
2018-03-04T06:17:00.696Z,108.70
2018-03-04T06:19:00.990Z,106.20
2018-03-04T06:20:01.108Z,105.70
2018-03-04T06:21:00.719Z,109.30
2018-03-04T06:22:00.728Z,106.90
2018-03-04T06:23:00.741Z,109.60
2018-03-04T06:24:00.744Z,107.30
2018-03-04T06:25:00.754Z,107.80
2018-03-04T06:26:00.765Z,109.80
2018-03-04T06:27:00.769Z,110.30
2018-03-04T06:28:00.780Z,106.20
2018-03-04T06:29:00.785Z,102.00
2018-03-04T06:30:00.795Z,113.20
2018-03-04T06:31:00.802Z,105.00
2018-03-04T06:32:00.811Z,104.70
2018-03-04T06:33:00.824Z,108.50
2018-03-04T06:34:00.829Z,107.10
2018-03-04T06:35:00.841Z,107.30
2018-03-04T06:36:00.844Z,105.50
2018-03-04T06:37:00.855Z,104.60
2018-03-04T06:38:00.884Z,98.50
2018-03-04T06:39:00.872Z,100.70
2018-03-04T06:40:00.880Z,102.20
2018-03-04T06:41:00.892Z,102.40
2018-03-04T06:42:00.902Z,101.50
2018-03-04T06:43:00.914Z,105.00
2018-03-04T06:44:00.918Z,103.90
2018-03-04T06:45:00.923Z,103.70
2018-03-04T06:46:00.933Z,101.80
2018-03-04T06:47:00.945Z,107.10
2018-03-04T06:48:00.953Z,103.00
2018-03-04T06:49:00.966Z,106.30
2018-03-04T06:51:01.281Z,102.60
2018-03-04T06:52:00.986Z,103.60
2018-03-04T06:53:00.994Z,102.10
2018-03-04T06:54:01.005Z,106.70
2018-03-04T06:55:01.010Z,106.10
2018-03-04T06:56:01.022Z,107.90
2018-03-04T06:57:01.051Z,102.70
2018-03-04T06:58:01.039Z,103.20
2018-03-04T06:59:01.044Z,100.50
2018-03-04T07:00:01.053Z,103.70
2018-03-04T07:01:01.063Z,99.70
2018-03-04T07:02:01.071Z,103.80
2018-03-04T07:03:01.087Z,104.20
2018-03-04T07:04:01.088Z,101.30
2018-03-04T07:05:01.108Z,105.00
2018-03-04T07:06:01.109Z,101.90
2018-03-04T07:07:01.128Z,101.70
2018-03-04T07:08:01.121Z,103.10
2018-03-04T07:09:01.132Z,98.70
2018-03-04T07:10:01.140Z,101.30
2018-03-04T07:11:01.149Z,105.30
2018-03-04T07:12:01.157Z,100.40
2018-03-04T07:13:01.356Z,101.00
2018-03-04T07:14:01.229Z,102.70
2018-03-04T07:15:01.183Z,102.00
2018-03-04T07:16:01.194Z,104.60
2018-03-04T07:17:01.202Z,100.70
2018-03-04T07:18:01.224Z,99.50
2018-03-04T07:19:01.222Z,102.00
2018-03-04T07:20:01.280Z,100.80
2018-03-04T07:21:01.239Z,95.80
2018-03-04T07:22:01.318Z,99.70
2018-03-04T07:23:01.275Z,100.70
2018-03-04T07:24:01.266Z,102.60
2018-03-04T07:25:01.275Z,102.30
2018-03-04T07:26:01.282Z,102.50
2018-03-04T07:27:01.294Z,101.60
2018-03-04T07:28:01.301Z,101.20
2018-03-04T07:29:01.319Z,101.10
2018-03-04T07:30:01.318Z,103.00
2018-03-04T07:31:01.328Z,98.60
2018-03-04T07:32:01.341Z,99.80
2018-03-04T07:33:01.349Z,102.00
2018-03-04T07:34:01.364Z,101.20
2018-03-04T07:35:01.365Z,100.60
2018-03-04T07:36:01.375Z,98.40
2018-03-04T07:37:01.384Z,98.60
2018-03-04T07:38:01.399Z,101.10
2018-03-04T07:39:01.401Z,100.70
2018-03-04T07:40:01.418Z,98.40
2018-03-04T07:41:01.421Z,100.40
2018-03-04T07:42:01.431Z,105.50
2018-03-04T07:43:01.438Z,100.00
2018-03-04T07:44:01.447Z,100.10
2018-03-04T07:45:01.461Z,100.20
2018-03-04T07:46:01.470Z,99.10
2018-03-04T07:47:01.481Z,101.40
2018-03-04T07:48:01.585Z,91.10
2018-03-04T07:49:01.496Z,96.50
2018-03-04T07:50:01.504Z,99.50
2018-03-04T07:51:01.514Z,97.50
2018-03-04T07:52:01.535Z,103.10
2018-03-04T07:53:01.544Z,97.60
2018-03-04T07:55:01.606Z,100.80
2018-03-04T07:56:01.562Z,93.00
2018-03-04T07:57:01.574Z,98.10
2018-03-04T07:58:01.579Z,94.90
2018-03-04T07:59:01.587Z,96.00
2018-03-04T08:00:01.598Z,96.10
2018-03-04T08:01:01.622Z,98.80
2018-03-04T08:02:01.623Z,100.80
2018-03-04T08:03:01.630Z,102.80
2018-03-04T08:04:01.631Z,95.70
2018-03-04T08:05:01.641Z,97.10
2018-03-04T08:06:01.662Z,97.70
2018-03-04T08:07:01.661Z,98.10
2018-03-04T08:08:01.674Z,97.90
2018-03-04T08:09:01.678Z,94.50
2018-03-04T08:10:01.691Z,97.50
2018-03-04T08:11:01.699Z,101.40
2018-03-04T08:12:01.709Z,102.80
2018-03-04T08:13:01.717Z,96.60
2018-03-04T08:14:01.725Z,100.30
2018-03-04T08:15:01.734Z,97.40
2018-03-04T08:16:01.750Z,97.50
2018-03-04T08:17:01.753Z,94.90
2018-03-04T08:18:01.766Z,96.10
2018-03-04T08:19:01.772Z,96.10
2018-03-04T08:20:01.784Z,101.80
2018-03-04T08:21:01.797Z,93.90
2018-03-04T08:22:01.802Z,96.40
2018-03-04T08:23:01.808Z,95.90
2018-03-04T08:24:01.822Z,96.90
2018-03-04T08:25:01.835Z,96.70
2018-03-04T08:26:02.025Z,100.20
2018-03-04T08:27:01.850Z,92.80
2018-03-04T08:28:01.856Z,94.60
2018-03-04T08:29:01.870Z,92.50
2018-03-04T08:30:01.884Z,101.20
2018-03-04T08:31:01.886Z,95.60
2018-03-04T08:32:01.895Z,94.90
2018-03-04T08:33:01.987Z,93.10
2018-03-04T08:34:01.917Z,93.30
2018-03-04T08:35:01.924Z,94.40
2018-03-04T08:36:01.938Z,95.10
2018-03-04T08:37:01.954Z,97.20
2018-03-04T08:38:01.954Z,92.30
2018-03-04T08:39:01.961Z,93.80
2018-03-04T08:40:01.972Z,96.70
2018-03-04T08:41:01.989Z,99.10
2018-03-04T08:42:01.989Z,96.30
2018-03-04T08:43:02.000Z,99.50
2018-03-04T08:44:02.008Z,93.20
2018-03-04T08:45:02.037Z,95.90
2018-03-04T08:46:02.030Z,94.80
2018-03-04T08:47:02.039Z,98.90
2018-03-04T08:48:02.048Z,94.00
2018-03-04T08:49:02.056Z,95.60
2018-03-04T08:50:02.066Z,92.50
2018-03-04T08:51:02.076Z,95.70
2018-03-04T08:52:02.086Z,96.50
2018-03-04T08:53:02.098Z,93.30
2018-03-04T08:54:02.116Z,95.10
2018-03-04T08:55:02.113Z,89.20
2018-03-04T08:56:02.376Z,98.40
2018-03-04T08:57:02.367Z,95.60
2018-03-04T08:58:02.161Z,92.00
2018-03-04T08:59:02.158Z,92.80
2018-03-04T09:00:02.166Z,97.40
2018-03-04T09:01:02.174Z,93.30
2018-03-04T09:02:02.183Z,94.80
2018-03-04T09:03:02.194Z,88.70
2018-03-04T09:04:02.224Z,90.80
2018-03-04T09:05:02.213Z,93.90
2018-03-04T09:06:02.263Z,93.50
2018-03-04T09:07:02.240Z,92.80
2018-03-04T09:08:02.240Z,94.50
2018-03-04T09:09:02.258Z,89.90
2018-03-04T09:10:02.265Z,93.00
2018-03-04T09:11:02.272Z,95.20
2018-03-04T09:12:02.286Z,90.80
2018-03-04T09:13:02.292Z,88.60
2018-03-04T09:14:02.359Z,90.00
2018-03-04T09:15:02.320Z,91.40
2018-03-04T09:16:02.322Z,84.20
2018-03-04T09:17:02.348Z,88.50
2018-03-04T09:18:02.409Z,92.70
2018-03-04T09:19:02.352Z,92.50
2018-03-04T09:20:02.362Z,91.40
2018-03-04T09:21:02.376Z,92.50
2018-03-04T09:22:02.685Z,92.80
2018-03-04T09:23:02.404Z,90.20
2018-03-04T09:24:02.408Z,88.00
2018-03-04T09:25:02.432Z,93.20
2018-03-04T09:26:02.577Z,87.60
2018-03-04T09:27:02.455Z,90.90
2018-03-04T09:28:02.494Z,92.60
2018-03-04T09:29:02.507Z,92.40
2018-03-04T09:30:02.462Z,88.00
2018-03-04T09:31:02.476Z,92.60
2018-03-04T09:32:02.485Z,89.20
2018-03-04T09:33:02.500Z,89.00
2018-03-04T09:34:02.531Z,87.20
2018-03-04T09:35:02.518Z,89.70
2018-03-04T09:36:02.523Z,89.00
2018-03-04T09:37:02.534Z,91.70
2018-03-04T09:38:02.543Z,87.30
2018-03-04T09:39:02.557Z,91.90
2018-03-04T09:40:02.566Z,86.90
2018-03-04T09:41:02.597Z,88.60
2018-03-04T09:42:02.604Z,88.60
2018-03-04T09:43:02.600Z,89.20
2018-03-04T09:44:02.605Z,88.00
2018-03-04T09:45:02.619Z,85.60
2018-03-04T09:46:02.661Z,86.90
2018-03-04T09:47:02.642Z,80.90
2018-03-04T09:48:02.652Z,84.20
2018-03-04T09:50:02.727Z,84.10
2018-03-04T09:51:02.688Z,87.30
2018-03-04T09:52:02.721Z,86.40
2018-03-04T09:53:02.704Z,87.50
2018-03-04T09:54:02.716Z,86.70
2018-03-04T09:55:02.722Z,85.00
2018-03-04T09:56:02.735Z,84.00
2018-03-04T09:57:02.753Z,87.40
2018-03-04T09:58:02.775Z,84.40
2018-03-04T09:59:02.788Z,83.70
2018-03-04T10:00:02.792Z,83.30
2018-03-04T10:01:02.792Z,84.50
2018-03-04T10:03:02.861Z,80.60
2018-03-04T10:05:03.256Z,82.90
2018-03-04T10:06:02.848Z,78.40
2018-03-04T10:07:02.862Z,79.40
2018-03-04T10:08:02.862Z,78.60
2018-03-04T10:09:02.878Z,79.70
2018-03-04T10:10:02.889Z,86.00
2018-03-04T10:11:02.902Z,80.80
2018-03-04T10:12:02.905Z,81.00
2018-03-04T10:13:02.918Z,80.10
2018-03-04T10:14:02.933Z,83.20
2018-03-04T10:15:02.948Z,80.80
2018-03-04T10:16:02.950Z,77.70
2018-03-04T10:17:02.960Z,80.80
2018-03-04T10:18:02.986Z,78.80
2018-03-04T10:19:02.980Z,81.40
2018-03-04T10:20:03.048Z,79.70
2018-03-04T10:22:03.524Z,79.40
2018-03-04T10:23:03.027Z,79.90
2018-03-04T10:24:03.038Z,79.50
2018-03-04T10:25:03.055Z,77.10
2018-03-04T10:26:03.068Z,79.90
2018-03-04T10:27:03.073Z,79.70
2018-03-04T10:28:03.092Z,78.60
2018-03-04T10:29:03.101Z,77.40
2018-03-04T10:30:03.113Z,78.10
2018-03-04T10:31:03.282Z,78.40
2018-03-04T10:32:03.200Z,78.10
2018-03-04T10:35:03.387Z,76.70
2018-03-04T10:36:03.180Z,77.10
2018-03-04T10:37:03.189Z,77.20
2018-03-04T10:38:03.202Z,75.00
2018-03-04T10:39:03.215Z,78.90
2018-03-04T10:40:03.225Z,77.30
2018-03-04T10:41:03.238Z,71.20
2018-03-04T10:42:03.249Z,75.40
2018-03-04T10:43:03.672Z,75.30
2018-03-04T10:44:03.284Z,75.10
2018-03-04T10:45:03.285Z,77.50
2018-03-04T10:46:03.302Z,73.90
2018-03-04T10:47:03.314Z,72.40
2018-03-04T10:48:03.322Z,74.90
2018-03-04T10:49:03.332Z,75.60
2018-03-04T10:50:03.348Z,74.30
2018-03-04T10:51:03.422Z,72.50
2018-03-04T10:52:03.572Z,71.30
2018-03-04T10:53:03.987Z,75.10
2018-03-04T10:54:03.398Z,72.00
2018-03-04T10:55:03.407Z,74.10
2018-03-04T10:56:03.415Z,73.40
2018-03-04T10:57:03.429Z,71.50
2018-03-04T10:58:03.439Z,71.90
2018-03-04T10:59:03.451Z,69.50
2018-03-04T11:00:03.466Z,73.10
2018-03-04T11:01:03.479Z,73.30
2018-03-04T11:02:03.489Z,71.50
2018-03-04T11:03:03.502Z,70.00
2018-03-04T11:04:03.512Z,67.80
2018-03-04T11:05:03.567Z,67.90
2018-03-04T11:06:03.539Z,72.20
2018-03-04T11:08:03.600Z,71.20
2018-03-04T11:09:03.982Z,73.30
2018-03-04T11:10:03.588Z,68.00
2018-03-04T11:11:03.598Z,65.70
2018-03-04T11:12:03.628Z,66.50
2018-03-04T11:13:03.631Z,66.70
2018-03-04T11:14:03.636Z,70.00
2018-03-04T11:15:03.667Z,73.70
2018-03-04T11:16:03.673Z,67.40
2018-03-04T11:17:03.680Z,69.90
2018-03-04T11:18:03.688Z,70.40
2018-03-04T11:19:03.698Z,71.20
2018-03-04T11:20:03.723Z,69.60
2018-03-04T11:21:03.725Z,68.00
2018-03-04T11:22:03.736Z,71.10
2018-03-04T11:23:03.749Z,67.20
2018-03-04T11:24:03.762Z,71.20
2018-03-04T11:25:03.997Z,68.30
2018-03-04T11:26:03.789Z,69.50
2018-03-04T11:27:03.841Z,70.10
2018-03-04T11:28:03.817Z,69.80
2018-03-04T11:29:03.822Z,68.80
2018-03-04T11:30:03.841Z,74.10
2018-03-04T11:31:03.848Z,69.80
2018-03-04T11:32:03.866Z,68.20
2018-03-04T11:33:03.876Z,66.70
2018-03-04T11:34:03.884Z,69.30
2018-03-04T11:35:03.902Z,69.20
2018-03-04T11:36:03.923Z,67.50
2018-03-04T11:37:03.922Z,70.30
2018-03-04T11:39:03.964Z,71.90
2018-03-04T11:40:03.962Z,67.80
2018-03-04T11:41:03.987Z,68.50
2018-03-04T11:42:03.984Z,69.70
2018-03-04T11:43:03.995Z,69.70
2018-03-04T11:44:04.015Z,65.40
2018-03-04T11:45:04.021Z,66.10
2018-03-04T11:46:04.044Z,67.70
2018-03-04T11:47:04.049Z,70.00
2018-03-04T11:48:04.057Z,65.10
2018-03-04T11:49:04.070Z,69.60
2018-03-04T11:50:04.088Z,69.10
2018-03-04T11:51:04.101Z,70.00
2018-03-04T11:52:04.107Z,65.40
2018-03-04T11:53:04.122Z,68.20
2018-03-04T11:54:04.135Z,66.80
2018-03-04T11:55:04.145Z,66.30
2018-03-04T11:56:04.154Z,64.80
2018-03-04T11:57:04.180Z,63.90
2018-03-04T11:58:04.180Z,70.90
2018-03-04T11:59:04.220Z,64.70
2018-03-04T12:00:04.211Z,63.90
2018-03-04T12:01:04.255Z,68.00
2018-03-04T12:02:04.230Z,69.90
2018-03-04T12:03:04.277Z,67.60
2018-03-04T12:04:04.266Z,63.80
2018-03-04T12:05:04.274Z,63.10
2018-03-04T12:06:04.292Z,63.20
2018-03-04T12:07:04.298Z,62.50
2018-03-04T12:08:04.342Z,59.10
2018-03-04T12:09:04.499Z,58.90
2018-03-04T12:11:04.346Z,58.70
2018-03-04T12:12:04.358Z,58.50
2018-03-04T12:13:04.373Z,55.50
2018-03-04T12:14:04.386Z,54.30
2018-03-04T12:15:04.393Z,56.20
2018-03-04T12:16:04.405Z,56.70
2018-03-04T12:17:04.422Z,56.40
2018-03-04T12:18:04.442Z,60.30
2018-03-04T12:19:04.454Z,56.80
2018-03-04T12:20:04.461Z,56.90
2018-03-04T12:21:04.472Z,54.40
2018-03-04T12:22:04.483Z,54.20
2018-03-04T12:23:04.502Z,57.80
2018-03-04T12:24:04.508Z,52.90
2018-03-04T12:25:04.531Z,52.70
2018-03-04T12:26:04.539Z,54.90
2018-03-04T12:27:04.552Z,53.50
2018-03-04T12:28:04.561Z,54.50
2018-03-04T12:29:04.580Z,53.60
2018-03-04T12:30:04.588Z,51.30
2018-03-04T12:31:04.605Z,55.90
2018-03-04T12:32:04.621Z,52.70
2018-03-04T12:33:04.629Z,52.80
2018-03-04T12:34:04.640Z,51.60
2018-03-04T12:35:04.653Z,56.50
2018-03-04T12:36:04.666Z,52.20
2018-03-04T12:37:04.688Z,54.30
2018-03-04T12:38:04.703Z,52.70
2018-03-04T12:39:04.710Z,49.10
2018-03-04T12:40:04.720Z,49.40
2018-03-04T12:41:04.741Z,50.30
2018-03-04T12:42:04.747Z,49.10
2018-03-04T12:43:05.022Z,49.10
2018-03-04T12:44:04.778Z,50.60
2018-03-04T12:45:04.786Z,52.60
2018-03-04T12:46:04.799Z,51.00
2018-03-04T12:47:04.843Z,47.00
2018-03-04T12:48:04.826Z,49.80
2018-03-04T12:49:04.843Z,47.80
2018-03-04T12:50:04.856Z,50.80
2018-03-04T12:51:04.866Z,49.10
2018-03-04T12:52:04.880Z,49.90
2018-03-04T12:53:04.894Z,45.20
2018-03-04T12:54:04.906Z,45.90
2018-03-04T12:55:04.918Z,46.50
2018-03-04T12:56:04.940Z,43.80
2018-03-04T12:57:04.948Z,48.30
2018-03-04T12:58:04.962Z,45.60
2018-03-04T12:59:04.974Z,45.60
2018-03-04T13:00:05.032Z,44.50
2018-03-04T13:01:05.001Z,44.30
2018-03-04T13:02:05.023Z,43.90
2018-03-04T13:03:05.028Z,44.30
2018-03-04T13:04:05.045Z,45.00
2018-03-04T13:05:05.055Z,43.90
2018-03-04T13:06:05.070Z,44.80
2018-03-04T13:07:05.085Z,46.10
2018-03-04T13:08:05.103Z,46.20